Logo AVAMET
Benvolgut visitant, si us plau, ingressa Recuperar contrasenya

Xàbia Montgó/Castellans

Dades diàries. Acumulats / Últims 30 dies disponibles

Data Temperatura (°C) Humitat rel. (%) Pressió rel. (hPa) Vent (km/h) Precipitació
Mínima Mitjana Màxima Amplitud
tèrmica
Mínima Mitjana Màxima Mínima Mitjana Màxima Predom. Mitjana Ràfega
màxima
Total
(mm)
Índex-n
Mínima Mitjana Màxima Mínima Mitjana Màxima n
0 a 1
P0 max
mm 5'
Dades mensuals acumulades fins l'últim dia disponible
06/2019 14,7 16,9 18,7 20,8 21,6 25,1 28,2 13,5 17 67 93 1.005 1.014 1.023   3,9 45,1 1,0
Dades anuals acumulades fins l'últim dia disponible
2019 5,1 12,1 20,4 15,5 10,3 19,5 29,3 24,2 17 65 98 994 1.018 1.035   3,2 54,7 433,6
Últims 30 dies disponibles
16-06-2019 18,7     19,8     23,6 4,9 60 80 90 1.017 1.018 1.020 OSO 5,0 38,6 0,0
15-06-2019 18,5     23,3     28,2 9,7 29 48 89 1.013 1.015 1.018 SW 4,7 41,8 0,0
14-06-2019 16,7     21,4     26,4 9,7 36 66 82 1.008 1.011 1.013 SW 4,7 38,6 0,0
13-06-2019 17,7     19,6     22,2 4,5 69 82 91 1.010 1.012 1.014 WNW 4,3 30,6 0,0
12-06-2019 14,7     18,0     21,6 6,9 53 74 89 1.013 1.014 1.016 E 3,4 25,7 0,0
11-06-2019 15,2     19,0     23,6 8,4 50 78 90 1.009 1.011 1.014 NW 3,7 29,0 1,0
10-06-2019 17,3     20,9     23,9 6,6 44 70 92 1.011 1.012 1.014 WNW 5,5 27,4 0,0
09-06-2019 17,4     20,7     24,8 7,4 32 63 82 1.012 1.015 1.019 WNW 5,1 41,8 0,0
08-06-2019 17,8     20,1     23,2 5,4 48 74 89 1.017 1.020 1.022 W 5,3 30,6 0,0
07-06-2019 16,3     21,8     27,6 11,3 34 63 87 1.010 1.013 1.018 ESE 2,7 25,7 0,0
06-06-2019 16,9     20,5     24,3 7,4 63 76 92 1.010 1.012 1.014 ESE 3,2 22,5 0,0
05-06-2019 16,8     22,0     27,7 10,9 17 64 93 1.005 1.008 1.012 S 3,5 45,1 0,0
04-06-2019 17,3     21,5     25,8 8,5 57 76 93 1.007 1.011 1.015 S 3,0 25,7 0,0
03-06-2019 17,4     21,5     25,6 8,2 39 61 87 1.014 1.017 1.019 S 2,9 24,1 0,0
02-06-2019 16,6     21,8     26,8 10,2 29 47 75 1.017 1.019 1.021 ESE 2,7 20,9 0,0
01-06-2019 14,9     20,3     26,3 11,4 32 52 76 1.020 1.021 1.023 E 2,1 17,7 0,0
31-05-2019 15,3     20,2     25,2 9,9 37 59 77 1.022 1.023 1.025 ESE 1,3 19,3 0,0
30-05-2019 15,3     19,5     24,1 8,8 42 66 86 1.023 1.024 1.025 S 2,6 25,7 0,0
29-05-2019 15,8     18,4     21,8 6,0 36 58 88 1.017 1.020 1.023 E 2,6 24,1 0,0
28-05-2019 17,3     19,6     23,1 5,8 42 68 89 1.011 1.013 1.017 NW 3,7 24,1 0,0
27-05-2019 15,9     20,5     24,8 8,9 54 70 85 1.010 1.012 1.015 ESE 2,4 19,3 0,0
26-05-2019 15,2     18,6     22,1 6,9 57 68 82 1.014 1.016 1.018 NW 2,9 24,1 0,0
25-05-2019 14,6     16,5     20,4 5,8 61 80 93 1.014 1.016 1.018 W 0,5 14,5 8,2 0,78 1,20
24-05-2019 15,1     17,7     22,1 7,0 31 77 92 1.012 1.014 1.015 NW 1,8 19,3 2,0
23-05-2019 16,4     21,7     26,9 10,5 25 48 84 1.014 1.016 1.018 SW 3,4 33,8 0,0
22-05-2019 14,7     18,9     24,1 9,4 46 77 92 1.016 1.017 1.018 E 2,6 29,0 0,0
21-05-2019 15,5     17,9     22,4 6,9 65 83 93 1.013 1.015 1.017 ESE 1,9 20,9 0,2
20-05-2019 13,9     17,9     21,9 8,0 46 65 83 1.011 1.012 1.014 E 2,6 19,3 0,0
19-05-2019 13,6     17,3     21,7 8,1 49 69 87 1.009 1.010 1.012 NW 2,3 20,9 0,0
18-05-2019 15,3     16,9     20,0 4,7 45 64 80 1.008 1.009 1.010 E 1,9 16,1 0,4
Últims 13 mesos disponibles
05/2019 11,2 15,1 20,4 18,5 18,8 22,8 29,3 18,1 48 70 83 1.005 1.015 1.024 NW 3,0 51,5 11,6
04/2019 9,1 12,4 14,3 15,4 13,9 19,3 28,1 19,0 38 69 94 999 1.012 1.025 NW 4,0 49,9 377,2
03/2019 7,9 11,4 14,6 14,9 13,7 19,2 27,1 19,2 38 62 92 1.010 1.022 1.030 NW 2,7 54,7 38,0
02/2019 6,4 9,6 12,0 13,0 13,0 17,3 23,1 16,7 37 65 89 996 1.024 1.033 NW 3,4 53,1 0,2
01/2019 5,1 9,3 12,5 12,5 10,3 16,0 20,9 15,8 38 59 82 1.003 1.018 1.030 W 2,7 48,3 5,6
12/2018 8,1 11,3 14,9 14,5 12,7 18,3 22,9 14,8 42 68 87 1.008 1.024 1.030 NW 1,9 59,5 23,4
11/2018 10,6 13,3 16,5 15,8 14,4 18,6 23,6 13,0 46 69 94 1.000 1.015 1.022 W 2,8 59,5 88,6
10/2018 9,1 16,4 19,9 19,3 14,8 23,1 28,1 19,0 42 73 90 999 1.014 1.025 2,8 53,1 103,0
09/2018 17,4 21,5 23,6 24,2 23,4 28,0 30,9 13,5 66 80 91 1.011 1.018 1.026 2,3 32,2 107,8
08/2018 19,3 23,5 27,3 26,6 24,8 30,7 36,8 17,5 48 73 86 1.012 1.016 1.020 2,7 32,2 131,8
07/2018 20,8 22,6 24,2 26,1 28,2 30,5 33,2 12,4 3,6 51,5 0,0
06/2018 15,1 19,3 22,1 22,9 22,6 27,3 31,2 16,1 3,6 41,8 25,6
05/2018 10,2 15,2 18,0 18,6 17,6 23,0 27,7 17,5 3,4 40,2 10,0
Tots els anys disponibles
2018 3,8 15,5 27,3 18,7 7,8 22,5 36,8 33,0 42 72 94 999 1.017 1.030 W 3,6 61,2 701,8
2017 0,8 15,4 26,4 18,6 8,4 22,5 34,0 33,2 3,6 67,6 588,4
2016 5,6 15,2 26,8 18,3 12,1 21,9 37,7 32,1 4,2 70,8 353,4
2015 3,4 15,8 21,7 18,9 22,1 22,7 37,9 34,5 4,3 66,0 453,6
2014 4,8 18,1 26,5 21,1 11,6 24,8 34,6 29,8 4,9 61,2 222,6
2013
Temperatura (°C)
Humitat relativa (%)
Velocitat del vent i ràfega màxima (km/h)
Direcció del vent (°)
Pressió (hPa)
Precipitació (mm)
Nota sobre les dades: s'avisa a l'usuari de la provisionalitat i no oficialitat d'aquestes dades
Logo AVAMET blanc
Web allotjada a Sollutia
Llicència de Creative CommonsLa web d'AVAMET i els seus continguts estan subjectes a una llicència de
Reconeixement - No Comercial - Compartir igual
Properes estacions: Catadau - Urb. Lloma Molina (Inforatge), Altea - Club Nàutic d'Altea (Soci), Ares del Maestrat (Ajuntament Soci),      - - - - -      Últimes estacions: Ontinyent - El Pilar (Soci), Asp - Poliesportiu (Soci), Jacarilla - centro (MeteOrihuela), Elx - Maitino/Vallverda/Velarde/Matola/Ferriol (Soci TiempoElche.com) - - -